Time;durP1;ratioP1;P1;durP2;ratioP2;P2;SDS_P1;SDS_P2;PMS_P1;PMS_P2;Temp;Humidity;BMP_temperature;BMP_pressure;BME280_temperature;BME280_humidity;BME280_pressure;Samples;Min_cycle;Max_cycle;Signal;HPM_P1;HPM_P2
2022/12/06 00:00:12;;;;;;;20.13;8.73;;;;;;;;;;6179331;23;20351;-63
2022/12/06 00:02:45;;;;;;;15.35;8.00;;;;;;;;;;6179397;23;20017;-64
2022/12/06 00:05:13;;;;;;;21.40;9.45;;;;;;;;;;6179735;23;20358;-56
2022/12/06 00:07:48;;;;;;;19.05;8.20;;;;;;;;;;6177472;23;20100;-58
2022/12/06 00:10:16;;;;;;;21.85;8.45;;;;;;;;;;6180081;23;20021;-56
2022/12/06 00:12:50;;;;;;;17.67;8.23;;;;;;;;;;6178537;23;20032;-56
2022/12/06 00:15:17;;;;;;;23.48;8.25;;;;;;;;;;6178971;23;20100;-57
2022/12/06 00:17:44;;;;;;;21.50;8.45;;;;;;;;;;6175601;23;20029;-56
2022/12/06 00:20:17;;;;;;;21.45;8.45;;;;;;;;;;6180234;23;20329;-58
2022/12/06 00:22:45;;;;;;;16.45;7.47;;;;;;;;;;6177702;23;20025;-55
2022/12/06 00:25:19;;;;;;;18.65;8.18;;;;;;;;;;6180548;23;20024;-54
2022/12/06 00:27:46;;;;;;;21.02;8.35;;;;;;;;;;6178998;23;20025;-55
2022/12/06 00:30:20;;;;;;;21.88;8.63;;;;;;;;;;6180366;23;20025;-54
2022/12/06 00:32:53;;;;;;;21.08;8.93;;;;;;;;;;6176787;23;20116;-56
2022/12/06 00:35:28;;;;;;;22.88;8.73;;;;;;;;;;6179765;23;20104;-53
2022/12/06 00:37:55;;;;;;;20.23;8.85;;;;;;;;;;6179016;23;20369;-55
2022/12/06 00:40:22;;;;;;;19.13;8.40;;;;;;;;;;6179893;23;20031;-54
2022/12/06 00:42:55;;;;;;;18.40;8.32;;;;;;;;;;6179436;23;20025;-63
2022/12/06 00:45:23;;;;;;;19.83;8.35;;;;;;;;;;6179262;23;20023;-62
2022/12/06 00:47:57;;;;;;;21.67;8.73;;;;;;;;;;6178736;23;20029;-50
2022/12/06 00:50:24;;;;;;;19.02;7.68;;;;;;;;;;6180495;23;20108;-51
2022/12/06 00:52:58;;;;;;;22.33;7.82;;;;;;;;;;6178171;23;20057;-49
2022/12/06 00:55:25;;;;;;;21.58;8.23;;;;;;;;;;6180169;23;20017;-50
2022/12/06 00:57:59;;;;;;;23.77;8.65;;;;;;;;;;6154470;23;20028;-48
2022/12/06 01:00:26;;;;;;;33.60;11.35;;;;;;;;;;6178917;23;20533;-51
2022/12/06 01:02:53;;;;;;;;;;;;;;;;;;6151376;23;20031;-54
2022/12/06 01:05:27;;;;;;;24.00;8.73;;;;;;;;;;6180335;23;19920;-62
2022/12/06 01:07:54;;;;;;;25.60;9.65;;;;;;;;;;6178060;23;20028;-63
2022/12/06 01:10:29;;;;;;;42.35;10.15;;;;;;;;;;6155379;23;20426;-63
2022/12/06 01:12:56;;;;;;;23.05;9.27;;;;;;;;;;6177285;23;20061;-63
2022/12/06 01:15:23;;;;;;;26.38;9.98;;;;;;;;;;6179765;23;20108;-63
2022/12/06 01:17:58;;;;;;;34.33;12.18;;;;;;;;;;6177993;23;20104;-63
2022/12/06 01:20:25;;;;;;;32.30;11.55;;;;;;;;;;6152805;23;20018;-60
2022/12/06 01:22:58;;;;;;;35.90;12.50;;;;;;;;;;6177935;23;20025;-55
2022/12/06 01:25:26;;;;;;;42.80;13.23;;;;;;;;;;6179048;23;20103;-45
2022/12/06 01:28:02;;;;;;;51.78;12.95;;;;;;;;;;6178244;23;20140;-44
2022/12/06 01:30:29;;;;;;;43.67;13.15;;;;;;;;;;6179721;23;20542;-44
2022/12/06 01:32:56;;;;;;;59.42;13.35;;;;;;;;;;6176191;23;20060;-47
2022/12/06 01:35:31;;;;;;;40.53;12.85;;;;;;;;;;6179259;23;20032;-50
2022/12/06 01:37:58;;;;;;;48.30;13.15;;;;;;;;;;6178162;23;20031;-45
2022/12/06 01:40:43;;;;;;;50.25;12.90;;;;;;;;;;6179461;23;20399;-52
2022/12/06 01:43:29;;;;;;;40.22;12.20;;;;;;;;;;6178171;23;20024;-60
2022/12/06 01:46:10;;;;;;;38.60;12.23;;;;;;;;;;6178998;23;20025;-60
2022/12/06 01:48:37;;;;;;;36.33;12.93;;;;;;;;;;6178363;23;20127;-58
2022/12/06 01:51:12;;;;;;;47.20;13.25;;;;;;;;;;6179169;23;20032;-59
2022/12/06 01:53:40;;;;;;;66.05;14.60;;;;;;;;;;6176722;23;20455;-60
2022/12/06 01:56:07;;;;;;;53.97;15.55;;;;;;;;;;6178002;23;20099;-60
2022/12/06 01:58:41;;;;;;;101.30;16.35;;;;;;;;;;6153399;23;20355;-45
2022/12/06 02:01:09;;;;;;;75.50;18.10;;;;;;;;;;6179093;23;20128;-62
2022/12/06 02:03:43;;;;;;;48.85;14.45;;;;;;;;;;6177960;23;20021;-61
2022/12/06 02:06:11;;;;;;;166.98;20.15;;;;;;;;;;6179502;23;20394;-61
2022/12/06 02:08:38;;;;;;;302.55;28.65;;;;;;;;;;6176792;23;20035;-61
2022/12/06 02:11:12;;;;;;;422.00;30.77;;;;;;;;;;6178666;23;20025;-61
2022/12/06 02:13:40;;;;;;;57.78;16.38;;;;;;;;;;6177973;23;20040;-61
2022/12/06 02:16:07;;;;;;;86.63;19.52;;;;;;;;;;6178823;23;20533;-61
2022/12/06 02:18:54;;;;;;;132.35;21.35;;;;;;;;;;6177461;23;20483;-54
2022/12/06 02:21:27;;;;;;;101.15;18.10;;;;;;;;;;6179323;23;20031;-60
2022/12/06 02:24:11;;;;;;;79.75;19.05;;;;;;;;;;6177549;23;20017;-59
2022/12/06 02:26:49;;;;;;;77.70;19.17;;;;;;;;;;6177427;23;20024;-59
2022/12/06 02:29:32;;;;;;;80.72;19.83;;;;;;;;;;6178804;23;20027;-59
2022/12/06 02:32:05;;;;;;;166.13;19.05;;;;;;;;;;6173317;23;20108;-60
2022/12/06 02:34:48;;;;;;;132.88;19.55;;;;;;;;;;6177727;23;20463;-60
2022/12/06 02:37:34;;;;;;;420.13;32.45;;;;;;;;;;6178713;23;20136;-48
2022/12/06 02:40:10;;;;;;;131.18;20.60;;;;;;;;;;6178819;23;20028;-46
2022/12/06 02:42:58;;;;;;;145.27;22.38;;;;;;;;;;6178268;23;20456;-47
2022/12/06 02:45:35;;;;;;;326.48;28.33;;;;;;;;;;6179391;23;20020;-45
2022/12/06 02:48:03;;;;;;;184.02;25.27;;;;;;;;;;6178092;23;20031;-45
2022/12/06 02:50:41;;;;;;;178.65;22.92;;;;;;;;;;6178849;23;20025;-45
2022/12/06 02:53:11;;;;;;;159.88;23.67;;;;;;;;;;6178009;23;20052;-46
2022/12/06 02:55:45;;;;;;;85.32;20.58;;;;;;;;;;6178311;23;20494;-60
2022/12/06 02:58:12;;;;;;;85.57;19.10;;;;;;;;;;6178570;23;20017;-61
2022/12/06 03:00:41;;;;;;;101.93;21.35;;;;;;;;;;6177366;23;20063;-61
2022/12/06 03:03:23;;;;;;;84.70;20.52;;;;;;;;;;6177866;23;20028;-61
2022/12/06 03:06:02;;;;;;;75.75;19.35;;;;;;;;;;6178623;23;20104;-61
2022/12/06 03:08:39;;;;;;;57.10;17.95;;;;;;;;;;6177932;23;20661;-61
2022/12/06 03:11:06;;;;;;;45.33;16.02;;;;;;;;;;6179360;23;20541;-61
2022/12/06 03:13:36;;;;;;;56.38;18.20;;;;;;;;;;6179458;23;20108;-61
2022/12/06 03:16:09;;;;;;;40.15;15.48;;;;;;;;;;6178035;23;20100;-53
2022/12/06 03:18:41;;;;;;;76.68;17.20;;;;;;;;;;6177538;23;20025;-46
2022/12/06 03:21:21;;;;;;;45.10;15.15;;;;;;;;;;6178846;23;20028;-45
2022/12/06 03:23:49;;;;;;;40.17;15.18;;;;;;;;;;6178691;23;20017;-46
2022/12/06 03:26:26;;;;;;;38.53;13.13;;;;;;;;;;6179740;23;20021;-45
2022/12/06 03:28:54;;;;;;;28.02;12.57;;;;;;;;;;6178074;23;20037;-44
2022/12/06 03:31:36;;;;;;;28.35;12.13;;;;;;;;;;6178440;23;20112;-44
2022/12/06 03:34:14;;;;;;;29.08;12.25;;;;;;;;;;6178468;23;20048;-54
2022/12/06 03:36:49;;;;;;;38.05;13.95;;;;;;;;;;6179356;23;20405;-63
2022/12/06 03:39:22;;;;;;;34.55;13.98;;;;;;;;;;6178862;23;20027;-62
2022/12/06 03:41:57;;;;;;;32.13;12.85;;;;;;;;;;6178554;23;20108;-63
2022/12/06 03:44:25;;;;;;;32.17;12.95;;;;;;;;;;6178225;23;20021;-63
2022/12/06 03:47:03;;;;;;;33.00;13.35;;;;;;;;;;6178317;23;20099;-62
2022/12/06 03:49:56;;;;;;;25.42;11.82;;;;;;;;;;6179582;23;20039;-62
2022/12/06 03:52:31;;;;;;;37.70;14.88;;;;;;;;;;6177614;23;20025;-54
2022/12/06 03:54:58;;;;;;;29.30;12.82;;;;;;;;;;6178558;23;20021;-63
2022/12/06 03:57:25;;;;;;;28.65;11.80;;;;;;;;;;6178645;23;20132;-61
2022/12/06 03:59:58;;;;;;;32.08;11.93;;;;;;;;;;6177803;23;20025;-61
2022/12/06 04:02:33;;;;;;;45.63;12.30;;;;;;;;;;6177501;23;20040;-61
2022/12/06 04:05:00;;;;;;;;;;;;;;;;;;6178407;23;20025;-62
2022/12/06 04:07:27;;;;;;;42.17;12.15;;;;;;;;;;6177810;23;20334;-61
2022/12/06 04:10:04;;;;;;;44.50;12.75;;;;;;;;;;6179145;23;20037;-61
2022/12/06 04:15:36;;;;;;;34.65;12.07;;;;;;;;;;6180517;23;20023;-60
2022/12/06 04:18:14;;;;;;;45.22;12.52;;;;;;;;;;6179176;23;20021;-59
2022/12/06 04:23:41;;;;;;;41.28;13.02;;;;;;;;;;6179072;23;20039;-60
2022/12/06 04:26:17;;;;;;;36.80;12.40;;;;;;;;;;6180551;23;20025;-60
2022/12/06 04:40:22;;;;;;;20.25;9.20;;;;;;;;;;6179678;23;20036;-63
2022/12/06 04:45:42;;;;;;;26.58;11.23;;;;;;;;;;6179049;23;20021;-62
2022/12/06 04:48:17;;;;;;;23.85;10.18;;;;;;;;;;6178839;23;20104;-62
2022/12/06 04:50:47;;;;;;;24.08;10.65;;;;;;;;;;6180112;23;20023;-52
2022/12/06 04:53:15;;;;;;;26.25;10.70;;;;;;;;;;6178690;23;20024;-61
2022/12/06 04:55:50;;;;;;;21.13;10.48;;;;;;;;;;6178085;23;20025;-61
2022/12/06 04:58:17;;;;;;;16.15;8.68;;;;;;;;;;6151847;23;20028;-61
2022/12/06 05:00:53;;;;;;;22.95;9.98;;;;;;;;;;6178718;23;20023;-62
2022/12/06 05:03:21;;;;;;;24.33;9.95;;;;;;;;;;6178651;23;20031;-61
2022/12/06 05:05:49;;;;;;;19.38;9.25;;;;;;;;;;6180200;23;20021;-61
2022/12/06 05:08:23;;;;;;;17.45;8.88;;;;;;;;;;6178132;23;20103;-61
2022/12/06 05:10:56;;;;;;;14.63;8.18;;;;;;;;;;6177097;23;20363;-51
2022/12/06 05:13:31;;;;;;;16.15;8.32;;;;;;;;;;6178735;23;20108;-62
2022/12/06 05:15:59;;;;;;;17.90;8.60;;;;;;;;;;6179775;23;20025;-63
2022/12/06 05:18:27;;;;;;;16.17;8.52;;;;;;;;;;6178572;23;20032;-62
2022/12/06 05:21:04;;;;;;;10.32;6.10;;;;;;;;;;6179206;23;20025;-62
2022/12/06 05:23:34;;;;;;;9.25;5.90;;;;;;;;;;6178470;23;20092;-62
2022/12/06 05:26:10;;;;;;;9.73;5.32;;;;;;;;;;6178744;23;20471;-62
2022/12/06 05:28:37;;;;;;;10.18;5.63;;;;;;;;;;6176094;23;20714;-54
2022/12/06 05:31:04;;;;;;;13.77;6.55;;;;;;;;;;6178341;23;20095;-56
2022/12/06 05:33:51;;;;;;;12.00;6.63;;;;;;;;;;6176963;23;20036;-60
2022/12/06 05:36:22;;;;;;;12.05;6.60;;;;;;;;;;6177636;23;20027;-60
2022/12/06 05:38:56;;;;;;;;;;;;;;;;;;6177933;23;20739;-60
2022/12/06 05:41:24;;;;;;;8.95;5.82;;;;;;;;;;6180062;23;20397;-60
2022/12/06 05:43:51;;;;;;;10.93;6.20;;;;;;;;;;6176463;23;20419;-60
2022/12/06 05:46:26;;;;;;;11.82;5.63;;;;;;;;;;6176364;23;20027;-60
2022/12/06 05:48:53;;;;;;;12.85;6.32;;;;;;;;;;6175744;23;20033;-63
2022/12/06 05:51:26;;;;;;;12.20;6.47;;;;;;;;;;6175451;23;20047;-57
2022/12/06 05:53:54;;;;;;;11.57;6.13;;;;;;;;;;6175827;23;20020;-55
2022/12/06 05:56:28;;;;;;;15.27;7.25;;;;;;;;;;6175202;23;20056;-55
2022/12/06 05:58:55;;;;;;;12.38;6.75;;;;;;;;;;6171728;23;20108;-56
2022/12/06 06:01:22;;;;;;;15.10;7.03;;;;;;;;;;6178493;23;20017;-56
2022/12/06 06:03:56;;;;;;;12.18;7.50;;;;;;;;;;6178033;23;20517;-56
2022/12/06 06:06:23;;;;;;;13.35;7.15;;;;;;;;;;6178012;23;20028;-55
2022/12/06 06:08:56;;;;;;;13.50;7.00;;;;;;;;;;6178961;23;20029;-60
2022/12/06 06:11:24;;;;;;;11.63;6.60;;;;;;;;;;6178338;23;20021;-61
2022/12/06 06:13:57;;;;;;;13.68;6.97;;;;;;;;;;6177146;23;20530;-62
2022/12/06 06:16:25;;;;;;;11.32;5.97;;;;;;;;;;6178775;23;20017;-61
2022/12/06 06:18:52;;;;;;;10.57;5.63;;;;;;;;;;6177970;23;20029;-61
2022/12/06 06:21:26;;;;;;;8.50;5.22;;;;;;;;;;6177921;23;20096;-61
2022/12/06 06:23:53;;;;;;;13.48;6.20;;;;;;;;;;6177877;23;20025;-62
2022/12/06 06:26:27;;;;;;;10.73;5.38;;;;;;;;;;6179233;23;20025;-54
2022/12/06 06:28:54;;;;;;;8.45;5.47;;;;;;;;;;6177413;23;20103;-58
2022/12/06 06:31:33;;;;;;;9.30;4.95;;;;;;;;;;6179431;23;20096;-60
2022/12/06 06:34:28;;;;;;;10.68;5.00;;;;;;;;;;6173268;23;20033;-58
2022/12/06 06:36:55;;;;;;;7.80;5.32;;;;;;;;;;6178800;23;20367;-59
2022/12/06 06:39:30;;;;;;;11.18;5.57;;;;;;;;;;6176616;23;20040;-59
2022/12/06 06:41:57;;;;;;;9.07;5.15;;;;;;;;;;6179051;23;20108;-59
2022/12/06 06:44:24;;;;;;;9.50;6.32;;;;;;;;;;6176874;23;20095;-52
2022/12/06 06:46:58;;;;;;;8.95;6.07;;;;;;;;;;6176749;23;20119;-60
2022/12/06 06:49:25;;;;;;;12.07;5.60;;;;;;;;;;6178377;23;20055;-61
2022/12/06 06:51:59;;;;;;;9.15;5.82;;;;;;;;;;6178795;23;20020;-61
2022/12/06 06:54:26;;;;;;;10.40;5.95;;;;;;;;;;6176936;23;20025;-61
2022/12/06 06:57:01;;;;;;;11.25;6.25;;;;;;;;;;6177437;23;20021;-61
2022/12/06 06:59:29;;;;;;;11.50;6.38;;;;;;;;;;6178751;23;20031;-61
2022/12/06 07:02:03;;;;;;;13.98;6.22;;;;;;;;;;6178561;23;20044;-61
2022/12/06 07:04:30;;;;;;;;;;;;;;;;;;6178851;23;20028;-62
2022/12/06 07:06:57;;;;;;;12.05;6.03;;;;;;;;;;6152006;23;19966;-62
2022/12/06 07:09:31;;;;;;;12.35;6.32;;;;;;;;;;6179824;23;20036;-60
2022/12/06 07:11:58;;;;;;;12.68;6.20;;;;;;;;;;6178870;23;20027;-62
2022/12/06 07:14:32;;;;;;;13.27;6.40;;;;;;;;;;6178451;23;20366;-61
2022/12/06 07:16:59;;;;;;;9.88;5.70;;;;;;;;;;6178671;23;20031;-62
2022/12/06 07:19:26;;;;;;;14.45;6.82;;;;;;;;;;6179540;23;20017;-63
2022/12/06 07:22:00;;;;;;;10.70;6.07;;;;;;;;;;6177391;23;20100;-52
2022/12/06 07:24:27;;;;;;;12.70;5.97;;;;;;;;;;6178396;23;20021;-62
2022/12/06 07:27:08;;;;;;;10.80;5.80;;;;;;;;;;6177648;23;20336;-55
2022/12/06 07:29:35;;;;;;;16.25;6.20;;;;;;;;;;6173263;23;20359;-56
2022/12/06 07:32:09;;;;;;;12.38;6.35;;;;;;;;;;6177571;23;20031;-57
2022/12/06 07:34:42;;;;;;;18.38;5.95;;;;;;;;;;6176491;23;20036;-58
2022/12/06 07:37:17;;;;;;;12.55;6.35;;;;;;;;;;6177076;23;20025;-56
2022/12/06 07:39:45;;;;;;;11.75;6.32;;;;;;;;;;6177778;23;20029;-53
2022/12/06 07:45:07;;;;;;;11.18;5.93;;;;;;;;;;6177602;23;20482;-46
2022/12/06 07:47:35;;;;;;;16.58;7.30;;;;;;;;;;6178552;23;20060;-46
2022/12/06 07:50:10;;;;;;;21.25;8.10;;;;;;;;;;6179137;23;20351;-45
2022/12/06 07:52:44;;;;;;;16.42;7.10;;;;;;;;;;6179626;23;20021;-45
2022/12/06 07:55:19;;;;;;;14.65;7.00;;;;;;;;;;6176969;23;20025;-44
2022/12/06 07:57:46;;;;;;;14.90;7.38;;;;;;;;;;6178786;23;20063;-45
2022/12/06 08:00:15;;;;;;;19.67;9.00;;;;;;;;;;6179041;23;20027;-62
2022/12/06 08:02:49;;;;;;;14.07;7.28;;;;;;;;;;6179978;23;20680;-59
2022/12/06 08:05:16;;;;;;;22.17;8.93;;;;;;;;;;6179767;23;20017;-55
2022/12/06 08:07:43;;;;;;;28.77;8.35;;;;;;;;;;6179750;23;20056;-52
2022/12/06 08:10:17;;;;;;;53.38;10.43;;;;;;;;;;6180355;23;20040;-54
2022/12/06 08:12:44;;;;;;;41.40;10.80;;;;;;;;;;6178746;23;20017;-53
2022/12/06 08:15:17;;;;;;;48.00;12.73;;;;;;;;;;6178616;23;20052;-52
2022/12/06 08:17:45;;;;;;;30.77;10.93;;;;;;;;;;6178742;23;20328;-54
2022/12/06 08:20:12;;;;;;;43.05;11.70;;;;;;;;;;6178713;23;20405;-50
2022/12/06 08:22:47;;;;;;;35.35;11.13;;;;;;;;;;6181227;23;20023;-52
2022/12/06 08:25:14;;;;;;;59.00;14.00;;;;;;;;;;6180880;23;20043;-56
2022/12/06 08:27:48;;;;;;;36.40;11.65;;;;;;;;;;6179496;23;20021;-59
2022/12/06 08:30:15;;;;;;;85.25;12.05;;;;;;;;;;6179375;23;20025;-60
2022/12/06 08:32:42;;;;;;;;;;;;;;;;;;6180773;23;20021;-60
2022/12/06 08:35:22;;;;;;;51.65;12.18;;;;;;;;;;6180142;23;19916;-60
2022/12/06 08:37:49;;;;;;;32.15;11.35;;;;;;;;;;6180512;23;20023;-59
2022/12/06 08:40:24;;;;;;;29.63;11.80;;;;;;;;;;6179171;23;20071;-56
2022/12/06 08:42:51;;;;;;;33.40;12.13;;;;;;;;;;6179778;23;20108;-53
2022/12/06 08:45:18;;;;;;;27.83;11.10;;;;;;;;;;6179102;23;20027;-52
2022/12/06 08:47:52;;;;;;;29.88;12.30;;;;;;;;;;6154806;23;20362;-51
2022/12/06 08:50:19;;;;;;;29.20;11.85;;;;;;;;;;6178175;23;20473;-53
2022/12/06 08:52:53;;;;;;;23.25;10.48;;;;;;;;;;6178991;23;20067;-56
2022/12/06 08:55:20;;;;;;;28.98;11.05;;;;;;;;;;6180085;23;20099;-50
2022/12/06 08:57:47;;;;;;;25.08;10.98;;;;;;;;;;6178428;23;20276;-45
2022/12/06 09:00:21;;;;;;;26.83;10.77;;;;;;;;;;6178329;23;20075;-59
2022/12/06 09:02:48;;;;;;;29.17;10.93;;;;;;;;;;6178570;23;20478;-55
2022/12/06 09:05:15;;;;;;;27.55;11.30;;;;;;;;;;6177813;23;20105;-54
2022/12/06 09:07:49;;;;;;;27.27;10.55;;;;;;;;;;6179472;23;20055;-52
2022/12/06 09:10:16;;;;;;;21.23;10.48;;;;;;;;;;6179033;23;20029;-54
2022/12/06 09:12:43;;;;;;;21.38;9.88;;;;;;;;;;6179380;23;20536;-51
2022/12/06 09:15:17;;;;;;;21.60;10.10;;;;;;;;;;6179748;23;20467;-48
2022/12/06 09:17:44;;;;;;;21.38;10.25;;;;;;;;;;6179449;23;20021;-49
2022/12/06 09:20:19;;;;;;;22.13;10.98;;;;;;;;;;6180290;23;20029;-61
2022/12/06 09:22:46;;;;;;;25.33;10.95;;;;;;;;;;6180473;23;20538;-61
2022/12/06 09:25:13;;;;;;;19.92;9.32;;;;;;;;;;6178128;23;20025;-61
2022/12/06 09:27:48;;;;;;;17.20;8.55;;;;;;;;;;6179270;23;20100;-61
2022/12/06 09:30:15;;;;;;;18.98;8.98;;;;;;;;;;6178485;23;20025;-61
2022/12/06 09:33:01;;;;;;;17.02;7.78;;;;;;;;;;6177761;23;20036;-61
2022/12/06 09:35:36;;;;;;;17.35;8.80;;;;;;;;;;6178532;23;20120;-50
2022/12/06 09:38:10;;;;;;;15.68;7.82;;;;;;;;;;6179371;23;20021;-52
2022/12/06 09:40:49;;;;;;;15.40;8.35;;;;;;;;;;6177909;23;20104;-59
2022/12/06 09:43:39;;;;;;;19.45;9.52;;;;;;;;;;6179815;23;20095;-54
2022/12/06 09:46:30;;;;;;;15.80;7.85;;;;;;;;;;6179815;23;20025;-56
2022/12/06 09:49:19;;;;;;;15.45;8.70;;;;;;;;;;6168319;23;20025;-55
2022/12/06 09:51:59;;;;;;;16.50;8.82;;;;;;;;;;6179088;23;20100;-57
2022/12/06 09:54:43;;;;;;;16.20;8.15;;;;;;;;;;6177998;23;20100;-55
2022/12/06 09:57:29;;;;;;;15.00;7.20;;;;;;;;;;6179724;23;20092;-61
2022/12/06 10:00:06;;;;;;;15.80;8.07;;;;;;;;;;6153419;23;20104;-57
2022/12/06 10:02:56;;;;;;;14.80;8.05;;;;;;;;;;6176665;23;20060;-53
2022/12/06 10:05:39;;;;;;;17.27;8.45;;;;;;;;;;6178540;23;20024;-55
2022/12/06 10:08:09;;;;;;;16.20;8.55;;;;;;;;;;6179535;23;20105;-53
2022/12/06 10:10:51;;;;;;;14.85;8.18;;;;;;;;;;6177874;23;20035;-54
2022/12/06 10:13:21;;;;;;;17.92;8.75;;;;;;;;;;6178828;23;20017;-53
2022/12/06 10:16:12;;;;;;;17.65;7.68;;;;;;;;;;6177713;23;20032;-53
2022/12/06 10:19:13;;;;;;;20.10;9.18;;;;;;;;;;6177674;23;20028;-62
2022/12/06 10:21:58;;;;;;;21.20;9.63;;;;;;;;;;6174047;23;20021;-62
2022/12/06 10:24:59;;;;;;;29.55;10.13;;;;;;;;;;6177284;23;20051;-62
2022/12/06 10:27:34;;;;;;;18.92;10.10;;;;;;;;;;6153612;23;20017;-62
2022/12/06 10:30:09;;;;;;;23.30;10.88;;;;;;;;;;6178265;23;20035;-62
2022/12/06 10:33:09;;;;;;;21.15;9.95;;;;;;;;;;6178224;23;20630;-51
2022/12/06 10:36:00;;;;;;;22.27;11.25;;;;;;;;;;6089260;23;20530;-62
2022/12/06 10:38:50;;;;;;;21.73;11.32;;;;;;;;;;6149380;23;20053;-62
2022/12/06 10:41:32;;;;;;;28.25;10.25;;;;;;;;;;6149550;23;20017;-62
2022/12/06 10:44:03;;;;;;;22.05;10.75;;;;;;;;;;6146919;23;20021;-63
2022/12/06 10:49:34;;;;;;;25.70;12.73;;;;;;;;;;6148922;23;20025;-63
2022/12/06 10:52:19;;;;;;;24.65;12.38;;;;;;;;;;6147873;23;20017;-56
2022/12/06 10:55:02;;;;;;;21.85;10.93;;;;;;;;;;6147874;23;20018;-55
2022/12/06 10:57:37;;;;;;;26.90;11.88;;;;;;;;;;6149325;23;20029;-61
2022/12/06 11:00:15;;;;;;;24.80;12.43;;;;;;;;;;6148433;23;20022;-61
2022/12/06 11:02:48;;;;;;;;;;;;;;;;;;6148750;23;20053;-61
2022/12/06 11:05:35;;;;;;;26.58;11.10;;;;;;;;;;6148125;23;19921;-61
2022/12/06 11:08:05;;;;;;;24.67;12.20;;;;;;;;;;6149168;23;20025;-62
2022/12/06 11:10:41;;;;;;;26.73;11.95;;;;;;;;;;6146975;23;20037;-52
2022/12/06 11:13:24;;;;;;;24.65;11.43;;;;;;;;;;6148315;23;20542;-54
2022/12/06 11:16:16;;;;;;;23.20;11.50;;;;;;;;;;6147449;23;20105;-62
2022/12/06 11:18:44;;;;;;;22.95;10.65;;;;;;;;;;6147100;23;20080;-63
2022/12/06 11:21:22;;;;;;;28.83;11.35;;;;;;;;;;6148936;23;20213;-63
2022/12/06 11:23:53;;;;;;;23.40;11.55;;;;;;;;;;6149778;23;20044;-63
2022/12/06 11:26:34;;;;;;;19.10;9.63;;;;;;;;;;6151172;23;20100;-63
2022/12/06 11:29:05;;;;;;;22.45;12.30;;;;;;;;;;6150313;23;20021;-63
2022/12/06 11:31:41;;;;;;;26.30;12.15;;;;;;;;;;6150854;23;20029;-55
2022/12/06 11:34:20;;;;;;;27.98;12.73;;;;;;;;;;6167089;23;20044;-58
2022/12/06 11:36:55;;;;;;;27.10;12.77;;;;;;;;;;6180659;23;20546;-60
2022/12/06 11:39:26;;;;;;;26.23;12.32;;;;;;;;;;6180957;23;20530;-60
2022/12/06 11:42:02;;;;;;;26.48;12.18;;;;;;;;;;6179781;23;20088;-59
2022/12/06 11:45:02;;;;;;;34.63;13.93;;;;;;;;;;6177880;23;20032;-59
2022/12/06 11:47:36;;;;;;;28.58;12.00;;;;;;;;;;6098439;23;20107;-60
2022/12/06 11:50:03;;;;;;;30.48;13.10;;;;;;;;;;6180222;23;20021;-55
2022/12/06 11:52:52;;;;;;;31.83;14.23;;;;;;;;;;6179678;23;20025;-62
2022/12/06 11:55:28;;;;;;;25.50;12.30;;;;;;;;;;6179882;23;20071;-63
2022/12/06 11:58:06;;;;;;;30.65;14.38;;;;;;;;;;6180609;23;20020;-63
2022/12/06 12:00:33;;;;;;;38.00;14.73;;;;;;;;;;6178855;23;20513;-63
2022/12/06 12:03:27;;;;;;;33.72;13.05;;;;;;;;;;6180474;23;20040;-63
2022/12/06 12:06:06;;;;;;;26.80;12.90;;;;;;;;;;6179468;23;20021;-63
2022/12/06 12:08:42;;;;;;;41.72;14.13;;;;;;;;;;6179522;23;20463;-46
2022/12/06 12:11:18;;;;;;;31.40;13.48;;;;;;;;;;6179379;23;20025;-62
2022/12/06 12:13:53;;;;;;;33.13;13.50;;;;;;;;;;6178965;23;20021;-62
2022/12/06 12:16:26;;;;;;;30.23;13.45;;;;;;;;;;6178845;23;20025;-62
2022/12/06 12:19:01;;;;;;;31.00;13.18;;;;;;;;;;6177417;23;20071;-62
2022/12/06 12:21:34;;;;;;;28.30;13.02;;;;;;;;;;6181000;23;20033;-62
2022/12/06 12:24:30;;;;;;;30.98;13.70;;;;;;;;;;6179861;23;20031;-62
2022/12/06 12:26:58;;;;;;;30.48;13.35;;;;;;;;;;6179655;23;20025;-46
2022/12/06 12:29:32;;;;;;;30.65;13.70;;;;;;;;;;6179957;23;20017;-49
2022/12/06 12:32:10;;;;;;;37.55;13.10;;;;;;;;;;6179630;23;20528;-58
2022/12/06 12:34:50;;;;;;;29.45;13.10;;;;;;;;;;6179423;23;20087;-56
2022/12/06 12:37:20;;;;;;;32.40;12.10;;;;;;;;;;6152546;23;20017;-55
2022/12/06 12:39:54;;;;;;;26.08;12.57;;;;;;;;;;6179033;23;20097;-54
2022/12/06 12:42:21;;;;;;;;;;;;;;;;;;6179966;23;20052;-56
2022/12/06 12:44:48;;;;;;;26.33;11.82;;;;;;;;;;6179200;23;19916;-57
2022/12/06 12:47:21;;;;;;;31.10;12.98;;;;;;;;;;6180021;23;20024;-47
2022/12/06 12:50:00;;;;;;;25.88;12.07;;;;;;;;;;6179701;23;20027;-58
2022/12/06 12:52:35;;;;;;;23.98;11.77;;;;;;;;;;6179173;23;20024;-55
2022/12/06 12:55:12;;;;;;;28.30;11.90;;;;;;;;;;6178853;23;20103;-55
2022/12/06 12:57:39;;;;;;;28.77;12.32;;;;;;;;;;6178948;23;20053;-57
2022/12/06 13:00:15;;;;;;;25.85;11.68;;;;;;;;;;6178054;23;20027;-57
2022/12/06 13:02:42;;;;;;;32.45;13.77;;;;;;;;;;6178448;23;20021;-57
2022/12/06 13:05:17;;;;;;;38.78;15.65;;;;;;;;;;6179490;23;20025;-51
2022/12/06 13:08:12;;;;;;;34.60;14.38;;;;;;;;;;6178906;23;20033;-57
2022/12/06 13:10:43;;;;;;;43.50;14.77;;;;;;;;;;6178185;23;20456;-55
2022/12/06 13:13:27;;;;;;;29.60;13.95;;;;;;;;;;6179361;23;20072;-52
2022/12/06 13:15:56;;;;;;;32.45;14.23;;;;;;;;;;6178571;23;20100;-54
2022/12/06 13:18:42;;;;;;;30.00;13.90;;;;;;;;;;6178905;23;20068;-51
2022/12/06 13:21:16;;;;;;;38.70;15.90;;;;;;;;;;6177730;23;20068;-53
2022/12/06 13:23:53;;;;;;;33.22;14.82;;;;;;;;;;6178520;23;20021;-52
2022/12/06 13:26:29;;;;;;;40.97;15.65;;;;;;;;;;6177610;23;20560;-59
2022/12/06 13:29:10;;;;;;;33.72;14.65;;;;;;;;;;6179283;23;20031;-62
2022/12/06 13:31:39;;;;;;;31.45;13.00;;;;;;;;;;6178658;23;20057;-63
2022/12/06 13:34:20;;;;;;;30.77;13.38;;;;;;;;;;6178759;23;20056;-63
2022/12/06 13:36:54;;;;;;;29.65;13.05;;;;;;;;;;6178079;23;20028;-63
2022/12/06 13:39:31;;;;;;;32.67;14.05;;;;;;;;;;6177734;23;20025;-62
2022/12/06 13:42:18;;;;;;;35.22;14.85;;;;;;;;;;6178645;23;20053;-63
2022/12/06 13:44:58;;;;;;;32.63;14.13;;;;;;;;;;6176935;23;20017;-52
2022/12/06 13:47:28;;;;;;;34.70;15.35;;;;;;;;;;6179397;23;20099;-51
2022/12/06 13:50:14;;;;;;;32.13;14.55;;;;;;;;;;6178357;23;20021;-49
2022/12/06 13:52:47;;;;;;;28.98;12.80;;;;;;;;;;6177505;23;20100;-51
2022/12/06 13:55:24;;;;;;;33.47;13.23;;;;;;;;;;6178188;23;20663;-50
2022/12/06 13:57:54;;;;;;;29.85;13.50;;;;;;;;;;6179140;23;20029;-50
2022/12/06 14:00:31;;;;;;;33.42;13.93;;;;;;;;;;6179912;23;20111;-52
2022/12/06 14:03:13;;;;;;;29.38;12.25;;;;;;;;;;6179505;23;20025;-52
2022/12/06 14:06:06;;;;;;;28.40;12.30;;;;;;;;;;6179264;23;20035;-62
2022/12/06 14:08:46;;;;;;;29.50;12.60;;;;;;;;;;6178288;23;20032;-62
2022/12/06 14:11:20;;;;;;;;;;;;;;;;;;6177823;23;20025;-61
2022/12/06 14:13:49;;;;;;;30.45;12.00;;;;;;;;;;6177919;23;20007;-62
2022/12/06 14:16:29;;;;;;;29.52;11.02;;;;;;;;;;6179114;23;20027;-62
2022/12/06 14:18:56;;;;;;;29.33;13.50;;;;;;;;;;6177651;23;20021;-62
2022/12/06 14:21:33;;;;;;;24.58;11.02;;;;;;;;;;6177793;23;20029;-60
2022/12/06 14:24:01;;;;;;;25.33;11.50;;;;;;;;;;6178747;23;20025;-62
2022/12/06 14:26:32;;;;;;;26.42;10.77;;;;;;;;;;6177910;23;20100;-53
2022/12/06 14:29:05;;;;;;;30.70;11.18;;;;;;;;;;6178404;23;20092;-55
2022/12/06 14:31:33;;;;;;;24.30;10.75;;;;;;;;;;6178990;23;20032;-54
2022/12/06 14:34:29;;;;;;;31.30;11.77;;;;;;;;;;6178928;23;20467;-57
2022/12/06 14:36:57;;;;;;;23.27;10.82;;;;;;;;;;6178231;23;20410;-54
2022/12/06 14:39:31;;;;;;;32.53;11.85;;;;;;;;;;6179834;23;20096;-55
2022/12/06 14:44:53;;;;;;;36.90;11.90;;;;;;;;;;6177119;23;20100;-53
2022/12/06 14:47:29;;;;;;;28.02;11.40;;;;;;;;;;6180003;23;20471;-52
2022/12/06 14:50:24;;;;;;;31.67;11.43;;;;;;;;;;6178587;23;20105;-49
2022/12/06 14:52:52;;;;;;;;;;;;;;;;;;6179490;23;20021;-51
2022/12/06 14:55:38;;;;;;;31.17;13.27;;;;;;;;;;6178412;23;19987;-50
2022/12/06 14:58:15;;;;;;;35.00;12.40;;;;;;;;;;6177370;23;20084;-54
2022/12/06 15:00:54;;;;;;;32.58;13.05;;;;;;;;;;6176311;23;20021;-48
2022/12/06 15:03:24;;;;;;;35.58;13.25;;;;;;;;;;6178105;23;20027;-49
2022/12/06 15:06:17;;;;;;;34.90;12.60;;;;;;;;;;6177053;23;20125;-45
2022/12/06 15:08:45;;;;;;;30.80;12.15;;;;;;;;;;6176271;23;20017;-50
2022/12/06 15:14:29;;;;;;;36.15;13.05;;;;;;;;;;6177049;23;20027;-45
2022/12/06 15:17:02;;;;;;;40.13;12.88;;;;;;;;;;6177762;23;20052;-44
2022/12/06 15:19:38;;;;;;;45.33;13.18;;;;;;;;;;6178617;23;20095;-58
2022/12/06 15:22:40;;;;;;;34.47;13.32;;;;;;;;;;6177510;23;20091;-53
2022/12/06 15:25:09;;;;;;;32.58;13.13;;;;;;;;;;6176433;23;20112;-51
2022/12/06 15:27:43;;;;;;;38.97;13.88;;;;;;;;;;6176785;23;20095;-54
2022/12/06 15:30:12;;;;;;;42.42;13.15;;;;;;;;;;6177673;23;20022;-54
2022/12/06 15:32:39;;;;;;;43.37;13.93;;;;;;;;;;6170862;23;20514;-52
2022/12/06 15:35:22;;;;;;;35.55;13.40;;;;;;;;;;6173566;23;20021;-52